createdAt,value
2019-03-26T00:04:25.456Z,1.82
2019-03-26T00:09:33.935Z,1.71
2019-03-26T00:14:43.179Z,1.54
2019-03-26T00:19:51.830Z,1.74
2019-03-26T00:25:00.496Z,1.72
2019-03-26T00:30:08.795Z,1.80
2019-03-26T00:35:17.342Z,1.64
2019-03-26T00:40:24.439Z,1.69
2019-03-26T00:45:32.979Z,1.70
2019-03-26T00:55:48.394Z,1.78
2019-03-26T01:00:56.937Z,1.86
2019-03-26T01:06:05.785Z,1.92
2019-03-26T01:11:14.474Z,1.84
2019-03-26T01:16:23.057Z,1.92
2019-03-26T01:21:31.680Z,1.87
2019-03-26T01:26:40.358Z,1.96
2019-03-26T01:31:48.869Z,1.98
2019-03-26T01:36:57.387Z,1.91
2019-03-26T01:42:05.834Z,1.82
2019-03-26T01:47:18.434Z,2.16
2019-03-26T01:52:16.806Z,2.03
2019-03-26T01:57:25.489Z,1.97
2019-03-26T02:02:33.924Z,1.86
2019-03-26T02:07:42.460Z,1.68
2019-03-26T02:12:51.836Z,1.72
2019-03-26T02:18:00.530Z,1.96
2019-03-26T02:23:09.085Z,1.90
2019-03-26T02:28:17.798Z,1.81
2019-03-26T02:33:26.286Z,2.07
2019-03-26T02:38:34.745Z,1.57
2019-03-26T02:43:43.219Z,1.90
2019-03-26T02:48:51.760Z,2.06
2019-03-26T02:54:00.213Z,2.42
2019-03-26T02:59:08.738Z,2.39
2019-03-26T03:04:17.169Z,2.66
2019-03-26T03:09:32.128Z,2.43
2019-03-26T03:14:30.462Z,2.59
2019-03-26T03:19:39.049Z,2.71
2019-03-26T03:24:47.640Z,2.71
2019-03-26T03:29:56.255Z,2.52
2019-03-26T03:35:04.934Z,2.58
2019-03-26T03:40:13.669Z,2.69
2019-03-26T03:45:22.181Z,2.99
2019-03-26T03:50:30.627Z,2.74
2019-03-26T03:55:39.354Z,2.95
2019-03-26T04:00:47.877Z,2.59
2019-03-26T04:06:08.686Z,2.97
2019-03-26T04:11:04.397Z,3.17
2019-03-26T04:16:12.965Z,2.84
2019-03-26T04:21:21.610Z,5.37
2019-03-26T04:26:30.035Z,4.07
2019-03-26T04:31:38.675Z,2.96
2019-03-26T04:36:47.162Z,3.87
2019-03-26T04:41:55.759Z,5.92
2019-03-26T04:47:04.254Z,3.39
2019-03-26T04:52:12.790Z,3.81
2019-03-26T04:57:21.442Z,3.85
2019-03-26T05:02:29.975Z,3.94
2019-03-26T05:07:38.510Z,3.60
2019-03-26T05:12:47.135Z,3.90
2019-03-26T05:23:02.585Z,4.37
2019-03-26T05:28:17.901Z,4.36
2019-03-26T05:33:16.287Z,3.93
2019-03-26T05:38:24.864Z,3.88
2019-03-26T05:43:34.694Z,4.49
2019-03-26T05:48:42.992Z,4.88
2019-03-26T05:53:52.882Z,5.25
2019-03-26T05:59:01.375Z,4.85
2019-03-26T06:04:09.916Z,5.21
2019-03-26T06:09:18.587Z,5.26
2019-03-26T06:14:31.162Z,6.16
2019-03-26T06:19:29.609Z,5.51
2019-03-26T06:24:37.962Z,6.22
2019-03-26T06:29:46.473Z,5.52
2019-03-26T06:34:54.976Z,5.84
2019-03-26T06:40:03.457Z,7.19
2019-03-26T06:45:11.966Z,6.09
2019-03-26T06:50:20.587Z,5.88
2019-03-26T06:55:29.253Z,6.62
2019-03-26T07:00:37.703Z,6.78
2019-03-26T07:05:46.232Z,7.55
2019-03-26T07:10:54.820Z,6.83
2019-03-26T07:16:03.307Z,7.03
2019-03-26T07:21:11.815Z,7.19
2019-03-26T07:26:20.313Z,7.07
2019-03-26T07:31:28.742Z,7.63
2019-03-26T07:36:38.803Z,7.19
2019-03-26T07:41:37.189Z,7.23
2019-03-26T07:51:53.208Z,7.13
2019-03-26T07:57:01.783Z,5.95
2019-03-26T08:02:10.958Z,5.57
2019-03-26T08:07:19.918Z,5.89
2019-03-26T08:12:28.930Z,6.04
2019-03-26T08:17:37.866Z,4.63
2019-03-26T08:22:46.861Z,5.01
2019-03-26T08:27:55.811Z,4.84
2019-03-26T08:33:04.829Z,4.77
2019-03-26T08:38:13.765Z,4.66
2019-03-26T08:43:22.778Z,5.46
2019-03-26T08:48:31.697Z,4.51
2019-03-26T08:53:48.036Z,4.85
2019-03-26T08:58:46.519Z,4.95
2019-03-26T09:03:55.021Z,5.07
2019-03-26T09:09:03.627Z,5.65
2019-03-26T09:14:12.675Z,4.85
2019-03-26T09:19:22.156Z,5.90
2019-03-26T09:24:31.394Z,6.03
2019-03-26T09:29:40.376Z,5.90
2019-03-26T09:35:04.031Z,5.51
2019-03-26T09:39:52.713Z,5.79
2019-03-26T09:45:01.799Z,6.51
2019-03-26T09:50:10.794Z,6.36
2019-03-26T09:55:19.868Z,6.95
2019-03-26T10:00:28.927Z,7.01
2019-03-26T10:05:38.041Z,7.30
2019-03-26T10:10:47.117Z,8.58
2019-03-26T10:15:55.754Z,9.06
2019-03-26T10:21:04.685Z,8.78
2019-03-26T10:26:13.303Z,8.67
2019-03-26T10:31:22.592Z,9.25
2019-03-26T10:36:31.308Z,15.82
2019-03-26T10:41:39.908Z,12.06
2019-03-26T10:46:48.418Z,9.78
2019-03-26T10:51:56.852Z,9.98
2019-03-26T10:57:05.897Z,9.55
2019-03-26T11:02:14.308Z,9.04
2019-03-26T11:07:22.800Z,9.06
2019-03-26T11:12:31.495Z,8.46
2019-03-26T11:17:40.353Z,8.83
2019-03-26T11:22:48.686Z,8.75
2019-03-26T11:27:57.243Z,8.98
2019-03-26T11:33:05.649Z,8.89
2019-03-26T11:38:14.729Z,9.06
2019-03-26T11:43:23.620Z,8.61
2019-03-26T11:48:32.153Z,7.96
2019-03-26T11:53:41.156Z,8.71
2019-03-26T11:58:55.531Z,9.10
2019-03-26T12:03:53.538Z,8.96
2019-03-26T12:09:02.253Z,8.31
2019-03-26T12:14:11.754Z,8.35
2019-03-26T12:19:19.898Z,8.64
2019-03-26T12:24:29.083Z,8.61
2019-03-26T12:29:44.196Z,8.85
2019-03-26T12:34:43.025Z,8.67
2019-03-26T12:39:59.246Z,8.40
2019-03-26T12:45:00.879Z,8.36
2019-03-26T12:50:09.812Z,8.08
2019-03-26T12:55:18.899Z,7.88
2019-03-26T13:00:27.870Z,6.96
2019-03-26T13:05:36.770Z,7.62
2019-03-26T13:10:53.493Z,7.07
2019-03-26T13:15:54.174Z,6.71
2019-03-26T13:21:03.177Z,6.53
2019-03-26T13:26:12.024Z,5.40
2019-03-26T13:31:19.714Z,4.87
2019-03-26T13:36:28.590Z,4.56
2019-03-26T13:42:47.412Z,4.15
2019-03-26T13:47:36.351Z,3.21
2019-03-26T13:52:45.352Z,3.03
2019-03-26T13:57:58.131Z,2.85
2019-03-26T14:02:56.838Z,3.20
2019-03-26T14:08:05.841Z,2.66
2019-03-26T14:18:22.818Z,3.00
2019-03-26T14:23:32.141Z,2.96
2019-03-26T14:28:41.303Z,2.65
2019-03-26T14:33:50.347Z,3.24
2019-03-26T14:38:59.255Z,2.64
2019-03-26T14:44:08.285Z,2.98
2019-03-26T14:49:17.196Z,2.40
2019-03-26T14:54:26.215Z,2.65
2019-03-26T14:59:35.955Z,2.59
2019-03-26T15:04:45.170Z,3.01
2019-03-26T15:09:54.233Z,3.75
2019-03-26T15:15:05.112Z,2.67
2019-03-26T15:20:03.339Z,3.05
2019-03-26T15:25:12.479Z,3.43
2019-03-26T15:30:21.537Z,3.03
2019-03-26T15:35:30.664Z,3.20
2019-03-26T15:40:39.695Z,3.23
2019-03-26T15:45:48.814Z,3.72
2019-03-26T15:50:57.835Z,4.27
2019-03-26T15:56:07.008Z,4.32
2019-03-26T16:01:16.035Z,4.94
2019-03-26T16:06:25.131Z,5.10
2019-03-26T16:11:36.124Z,5.45
2019-03-26T16:16:42.918Z,4.76
2019-03-26T16:21:52.057Z,5.85
2019-03-26T16:27:01.176Z,4.96
2019-03-26T16:37:17.998Z,4.64
2019-03-26T16:42:27.188Z,4.42
2019-03-26T16:47:36.566Z,4.61
2019-03-26T16:52:45.562Z,4.87
2019-03-26T16:57:54.992Z,4.99
2019-03-26T17:03:04.475Z,4.91
2019-03-26T17:08:13.471Z,5.00
2019-03-26T17:13:24.812Z,4.63
2019-03-26T17:18:22.936Z,4.08
2019-03-26T17:23:32.756Z,4.53
2019-03-26T17:28:42.780Z,5.15
2019-03-26T17:33:41.716Z,4.85
2019-03-26T17:38:50.921Z,5.21
2019-03-26T17:44:00.014Z,5.48
2019-03-26T17:49:08.929Z,5.80
2019-03-26T17:54:17.869Z,4.23
2019-03-26T17:59:26.299Z,4.83
2019-03-26T18:04:35.383Z,4.17
2019-03-26T18:09:44.488Z,4.48
2019-03-26T18:14:53.690Z,4.25
2019-03-26T18:20:02.682Z,4.31
2019-03-26T18:25:11.692Z,4.50
2019-03-26T18:30:21.099Z,4.62
2019-03-26T18:35:29.945Z,5.07
2019-03-26T18:40:38.329Z,4.76
2019-03-26T18:45:47.333Z,4.89
2019-03-26T18:50:56.361Z,4.35
2019-03-26T18:56:05.481Z,4.97
2019-03-26T19:01:14.500Z,5.29
2019-03-26T19:06:23.459Z,7.27
2019-03-26T19:11:33.085Z,7.91
2019-03-26T19:16:42.107Z,8.66
2019-03-26T19:21:51.133Z,9.04
2019-03-26T19:26:59.973Z,9.20
2019-03-26T19:32:09.030Z,8.86
2019-03-26T19:37:17.953Z,9.12
2019-03-26T19:42:33.232Z,10.67
2019-03-26T19:47:32.129Z,9.96
2019-03-26T19:52:41.384Z,9.22
2019-03-26T19:57:50.363Z,9.47
